Time;durP1;ratioP1;P1;durP2;ratioP2;P2;SDS_P1;SDS_P2;PMS_P1;PMS_P2;Temp;Humidity;BMP_temperature;BMP_pressure;BME280_temperature;BME280_humidity;BME280_pressure;Samples;Min_cycle;Max_cycle;Signal;HPM_P1;HPM_P2
2021/12/11 00:17:29;;;;;;;37.63;25.13;;;;;;;8.67;100.00;100420.88;5436765;23;20052;-71
2021/12/11 00:20:24;;;;;;;39.75;25.88;;;;;;;8.53;100.00;100418.47;4939422;29;20039;-71
2021/12/11 00:23:10;;;;;;;42.65;27.55;;;;;;;7.91;100.00;100448.81;4938600;29;20039;-72
2021/12/11 00:25:56;;;;;;;49.80;29.60;;;;;;;7.77;100.00;100454.19;4939061;29;20027;-71
2021/12/11 00:28:47;;;;;;;36.35;24.67;;;;;;;7.85;100.00;100461.94;4923971;29;20032;-71
2021/12/11 00:31:34;;;;;;;41.83;26.15;;;;;;;8.17;100.00;100468.53;4936734;29;20048;-71
2021/12/11 00:34:22;;;;;;;48.00;28.85;;;;;;;8.15;100.00;100466.78;4924009;29;20421;-72
2021/12/11 00:37:10;;;;;;;46.33;29.00;;;;;;;8.30;100.00;100475.34;4937680;29;20095;-72
2021/12/11 00:39:58;;;;;;;38.80;25.63;;;;;;;8.32;100.00;100475.34;4937888;29;20031;-71
2021/12/11 00:42:56;;;;;;;45.05;26.98;;;;;;;8.33;100.00;100471.84;4938238;29;20035;-72
2021/12/11 00:45:44;;;;;;;43.63;26.90;;;;;;;8.16;100.00;100476.38;4937696;29;20039;-71
2021/12/11 00:48:31;;;;;;;41.08;26.67;;;;;;;7.88;100.00;100499.25;4937846;29;20028;-72
2021/12/11 00:51:20;;;;;;;41.30;26.13;;;;;;;8.13;100.00;100503.34;4938002;29;20094;-72
2021/12/11 00:54:07;;;;;;;48.40;28.77;;;;;;;8.37;100.00;100507.47;4937321;29;20111;-71
2021/12/11 00:56:52;;;;;;;42.50;26.52;;;;;;;8.35;100.00;100507.47;4937580;29;20457;-72
2021/12/11 00:59:39;;;;;;;39.03;26.27;;;;;;;8.34;100.00;100497.91;4937401;29;20039;-72
2021/12/11 01:02:25;;;;;;;45.10;26.52;;;;;;;8.03;100.00;100498.22;4938150;29;20063;-71
2021/12/11 01:05:11;;;;;;;42.67;27.30;;;;;;;8.14;100.00;100507.69;4937344;29;20043;-72
2021/12/11 01:07:57;;;;;;;40.33;25.38;;;;;;;7.74;100.00;100506.38;4938250;29;20122;-71
2021/12/11 01:10:44;;;;;;;45.33;27.13;;;;;;;8.04;100.00;100492.16;4937687;29;20106;-71
2021/12/11 01:13:32;;;;;;;43.40;26.98;;;;;;;7.98;100.00;100492.19;4937660;29;20106;-72
2021/12/11 01:16:20;;;;;;;46.92;27.73;;;;;;;8.02;100.00;100493.91;4937008;29;20555;-72
2021/12/11 01:19:08;;;;;;;41.88;26.55;;;;;;;8.26;100.00;100491.06;4923430;29;20035;-73
2021/12/11 01:21:59;;;;;;;47.90;28.52;;;;;;;8.37;100.00;100494.41;4923972;29;20023;-71
2021/12/11 01:24:46;;;;;;;44.38;27.45;;;;;;;7.92;100.00;100502.72;4937221;29;20039;-71
2021/12/11 01:27:32;;;;;;;47.58;26.25;;;;;;;8.17;100.00;100497.22;4937038;29;20035;-71
2021/12/11 01:30:26;;;;;;;54.17;30.38;;;;;;;8.12;100.00;100503.38;4935932;29;20027;-72
2021/12/11 01:33:13;;;;;;;45.20;27.50;;;;;;;7.89;100.00;100516.66;4937361;29;20035;-72
2021/12/11 01:35:59;;;;;;;44.17;26.85;;;;;;;7.93;100.00;100514.88;4936481;29;20087;-71
2021/12/11 01:38:47;;;;;;;52.78;30.42;;;;;;;8.49;100.00;100510.75;4924375;29;20046;-72
2021/12/11 01:41:33;;;;;;;64.90;33.60;;;;;;;8.39;100.00;100501.34;4936722;29;20032;-72
2021/12/11 01:44:30;;;;;;;50.17;30.20;;;;;;;8.79;100.00;100499.94;4937414;29;20110;-72
2021/12/11 01:47:20;;;;;;;51.15;29.50;;;;;;;8.04;100.00;100499.97;4936399;29;20028;-72
2021/12/11 01:50:30;;;;;;;51.13;28.58;;;;;;;7.79;100.00;100496.75;4923652;29;20028;-72
2021/12/11 01:53:21;;;;;;;64.45;33.33;;;;;;;8.21;100.00;100509.38;4923133;29;20036;-71
2021/12/11 01:56:14;;;;;;;52.78;29.23;;;;;;;7.77;100.00;100511.56;4936843;29;20024;-71
2021/12/11 01:59:27;;;;;;;44.78;26.40;;;;;;;8.20;100.00;100515.44;4936086;29;20028;-73
2021/12/11 02:02:22;;;;;;;48.42;27.63;;;;;;;7.81;100.00;100533.25;4936740;29;20023;-70
2021/12/11 02:05:10;;;;;;;43.60;26.00;;;;;;;8.33;100.00;100514.44;4936438;29;20024;-71
2021/12/11 02:08:00;;;;;;;45.47;25.98;;;;;;;8.29;100.00;100507.56;4922141;29;20410;-72
2021/12/11 02:10:55;;;;;;;44.30;25.58;;;;;;;8.63;100.00;100507.97;4938184;28;20036;-71
2021/12/11 02:13:48;;;;;;;44.45;25.90;;;;;;;8.09;100.00;100511.22;4937352;29;20475;-72
2021/12/11 02:16:45;;;;;;;44.13;26.77;;;;;;;8.44;100.00;100506.50;4936234;29;20056;-71
2021/12/11 02:19:37;;;;;;;42.35;24.40;;;;;;;8.47;100.00;100504.72;4923073;29;20063;-71
2021/12/11 02:22:30;;;;;;;42.53;25.33;;;;;;;8.69;100.00;100506.16;4936502;29;20107;-72
2021/12/11 02:25:23;;;;;;;36.53;22.67;;;;;;;8.57;100.00;100508.06;4936590;29;20036;-73
2021/12/11 02:28:24;;;;;;;41.35;23.27;;;;;;;8.65;100.00;100496.63;4936418;29;20027;-72
2021/12/11 02:31:19;;;;;;;44.03;25.60;;;;;;;8.85;100.00;100493.75;4936425;29;20114;-71
2021/12/11 02:34:15;;;;;;;44.88;25.73;;;;;;;8.71;100.00;100498.31;4936027;29;20032;-72
2021/12/11 02:37:23;;;;;;;41.47;23.88;;;;;;;8.65;100.00;100507.06;4922373;29;20055;-72
2021/12/11 02:40:17;;;;;;;38.60;21.25;;;;;;;8.66;100.00;100495.78;4936889;29;20118;-72
2021/12/11 02:43:08;;;;;;;42.63;21.90;;;;;;;8.17;100.00;100483.31;4936557;29;20035;-72
2021/12/11 02:45:56;;;;;;;53.35;23.48;;;;;;;8.74;100.00;100480.84;4936498;29;20027;-71
2021/12/11 02:49:06;;;;;;;47.80;23.30;;;;;;;8.46;100.00;100482.09;4936510;29;20090;-71
2021/12/11 02:52:07;;;;;;;37.45;20.52;;;;;;;8.44;100.00;100473.41;4937063;29;20027;-71
2021/12/11 02:55:08;;;;;;;40.25;21.38;;;;;;;8.42;100.00;100458.66;4936142;29;20498;-71
2021/12/11 02:58:22;;;;;;;34.67;18.98;;;;;;;8.62;100.00;100451.44;4923039;29;20032;-72
2021/12/11 03:01:20;;;;;;;40.92;20.70;;;;;;;8.75;100.00;100450.38;4923378;29;20054;-71
2021/12/11 03:04:51;;;;;;;39.15;21.17;;;;;;;8.25;100.00;100453.66;4923362;29;20031;-72
2021/12/11 03:07:43;;;;;;;38.00;20.02;;;;;;;8.20;100.00;100465.84;4936302;29;20462;-72
2021/12/11 03:10:29;;;;;;;44.55;22.35;;;;;;;8.41;100.00;100463.00;4936170;29;20468;-72
2021/12/11 03:13:15;;;;;;;36.90;19.63;;;;;;;8.47;100.00;100456.84;4939506;29;20114;-72
2021/12/11 03:16:02;;;;;;;38.35;19.48;;;;;;;8.08;100.00;100465.16;4925399;29;20027;-72
2021/12/11 03:18:48;;;;;;;35.47;18.77;;;;;;;8.39;100.00;100471.75;4939483;29;20214;-71
2021/12/11 03:21:35;;;;;;;36.10;18.88;;;;;;;8.78;100.00;100479.06;4939770;29;20365;-72
2021/12/11 03:24:21;;;;;;;34.95;18.67;;;;;;;8.43;100.00;100489.09;4940769;28;20114;-71
2021/12/11 03:27:08;;;;;;;37.70;19.40;;;;;;;8.45;100.00;100487.34;4939114;29;20024;-72
2021/12/11 03:29:54;;;;;;;45.28;20.77;;;;;;;8.27;100.00;100484.94;4938782;29;20039;-72
2021/12/11 03:32:40;;;;;;;37.03;19.45;;;;;;;7.98;100.00;100487.00;4940094;29;20023;-72
2021/12/11 03:35:27;;;;;;;43.63;21.17;;;;;;;8.45;100.00;100484.72;4925429;29;20032;-71
2021/12/11 03:38:14;;;;;;;39.08;20.77;;;;;;;8.26;100.00;100486.72;4939028;29;20032;-71
2021/12/11 03:41:00;;;;;;;40.72;22.70;;;;;;;8.14;100.00;100468.56;4924378;29;20020;-72
2021/12/11 03:43:47;;;;;;;49.13;23.65;;;;;;;7.71;100.00;100485.53;4939049;29;20368;-71
2021/12/11 03:46:33;;;;;;;41.88;23.08;;;;;;;7.84;100.00;100496.72;4938864;29;20043;-72
2021/12/11 03:49:22;;;;;;;43.88;22.73;;;;;;;8.29;100.00;100499.72;4939007;29;20480;-71
2021/12/11 03:52:11;;;;;;;44.38;22.02;;;;;;;8.31;100.00;100504.91;4939994;29;20493;-73
2021/12/11 03:54:57;;;;;;;39.97;21.80;;;;;;;8.21;100.00;100509.38;4927073;29;20171;-72
2021/12/11 03:57:44;;;;;;;50.05;23.60;;;;;;;8.23;100.00;100518.06;4939303;29;20114;-71
2021/12/11 04:00:48;;;;;;;40.95;21.35;;;;;;;8.12;100.00;100522.47;4938491;29;20383;-72
2021/12/11 04:03:37;;;;;;;31.98;17.75;;;;;;;8.10;100.00;100531.22;4938954;29;20468;-72
2021/12/11 04:06:23;;;;;;;39.03;19.50;;;;;;;8.13;100.00;100545.09;4938380;29;20031;-71
2021/12/11 04:09:12;;;;;;;34.03;18.17;;;;;;;8.11;100.00;100545.97;4925275;29;20400;-72
2021/12/11 04:11:59;;;;;;;31.08;18.25;;;;;;;8.07;100.00;100539.06;4938702;29;20031;-72
2021/12/11 04:14:48;;;;;;;32.63;17.73;;;;;;;8.13;100.00;100524.22;4938512;29;20116;-71
2021/12/11 04:17:34;;;;;;;30.50;16.80;;;;;;;7.90;100.00;100530.53;4937911;29;20186;-71
2021/12/11 04:20:22;;;;;;;37.30;19.52;;;;;;;8.22;100.00;100525.88;4938647;29;20147;-71
2021/12/11 04:23:13;;;;;;;40.75;18.85;;;;;;;7.74;100.00;100526.34;4923257;29;20039;-71
2021/12/11 04:26:00;;;;;;;31.77;17.38;;;;;;;8.17;100.00;100528.53;4938083;29;20039;-71
2021/12/11 04:28:47;;;;;;;36.95;18.00;;;;;;;7.62;100.00;100521.25;4937954;29;20032;-71
2021/12/11 04:31:34;;;;;;;32.35;17.45;;;;;;;7.12;100.00;100529.44;4923591;29;20039;-72
2021/12/11 04:34:22;;;;;;;29.90;15.52;;;;;;;6.88;100.00;100528.75;4937866;29;20032;-72
2021/12/11 04:37:18;;;;;;;24.25;14.73;;;;;;;6.27;100.00;100529.91;4937721;29;20031;-71
2021/12/11 04:40:10;;;;;;;20.58;13.98;;;;;;;6.03;100.00;100525.59;4938059;29;20043;-72
2021/12/11 04:46:01;;;;;;;23.83;14.70;;;;;;;6.19;100.00;100529.06;4938354;29;20028;-72
2021/12/11 04:49:08;;;;;;;19.90;12.88;;;;;;;6.10;100.00;100534.28;4923576;29;20369;-71
2021/12/11 04:55:32;;;;;;;23.08;14.00;;;;;;;5.71;100.00;100526.50;4843908;29;20030;-73
2021/12/11 04:58:40;;;;;;;23.85;14.38;;;;;;;6.09;100.00;100522.13;4938170;29;20364;-71
2021/12/11 05:07:30;;;;;;;29.67;16.55;;;;;;;5.93;100.00;100518.72;4937673;29;20108;-72
2021/12/11 05:10:27;;;;;;;26.65;16.45;;;;;;;5.71;100.00;100514.41;4937122;29;20031;-71
2021/12/11 05:13:12;;;;;;;24.52;15.05;;;;;;;5.73;100.00;100507.44;4937731;29;20167;-72
2021/12/11 05:16:03;;;;;;;23.60;15.15;;;;;;;5.80;100.00;100508.28;4937951;29;20068;-72
2021/12/11 05:18:49;;;;;;;23.35;14.98;;;;;;;5.61;100.00;100496.19;4937265;29;20111;-72
2021/12/11 05:21:36;;;;;;;28.25;16.88;;;;;;;5.86;100.00;100488.38;4937296;29;20137;-72
2021/12/11 05:24:22;;;;;;;23.02;15.25;;;;;;;5.63;100.00;100471.06;4937885;29;20027;-72
2021/12/11 05:27:08;;;;;;;25.27;15.43;;;;;;;5.73;100.00;100471.06;4937708;29;20362;-72
2021/12/11 05:29:55;;;;;;;22.77;14.88;;;;;;;5.78;100.00;100471.06;4936645;29;20107;-72
2021/12/11 05:32:41;;;;;;;21.35;14.85;;;;;;;5.83;100.00;100472.78;4937338;29;20122;-72
2021/12/11 05:35:29;;;;;;;25.10;15.57;;;;;;;5.79;100.00;100483.19;4922102;29;20106;-72
2021/12/11 05:38:20;;;;;;;26.73;16.33;;;;;;;6.11;100.00;100494.41;4922768;29;20149;-71
2021/12/11 05:41:09;;;;;;;31.33;17.10;;;;;;;5.93;100.00;100484.91;4936635;29;20384;-72
2021/12/11 05:43:55;;;;;;;34.15;18.48;;;;;;;5.57;100.00;100494.47;4924284;29;20122;-72
2021/12/11 05:46:41;;;;;;;47.22;21.13;;;;;;;5.61;100.00;100504.84;4923465;29;20039;-72
2021/12/11 05:49:29;;;;;;;58.13;20.80;;;;;;;5.55;100.00;100498.81;4937622;29;20314;-71
2021/12/11 05:52:15;;;;;;;45.67;22.00;;;;;;;5.72;100.00;100507.44;4936353;29;20345;-72
2021/12/11 05:55:01;;;;;;;76.07;25.75;;;;;;;5.56;100.00;100524.78;4936877;29;20529;-71
2021/12/11 05:57:53;;;;;;;65.53;24.55;;;;;;;5.37;100.00;100517.84;4936811;29;20028;-71
2021/12/11 06:00:44;;;;;;;49.65;24.02;;;;;;;5.52;100.00;100522.19;4937394;29;20102;-72
2021/12/11 06:03:30;;;;;;;76.28;24.17;;;;;;;5.56;100.00;100519.59;4937597;29;20032;-72
2021/12/11 06:06:16;;;;;;;45.25;23.77;;;;;;;5.63;100.00;100513.53;4936143;29;20039;-72
2021/12/11 06:09:05;;;;;;;39.13;20.92;;;;;;;5.15;100.00;100511.78;4936410;29;20114;-72
2021/12/11 06:11:54;;;;;;;42.30;21.42;;;;;;;5.31;100.00;100528.25;4923091;29;20082;-72
2021/12/11 06:14:42;;;;;;;48.05;22.10;;;;;;;5.70;100.00;100537.78;4924625;29;20023;-71
2021/12/11 06:17:30;;;;;;;38.30;19.80;;;;;;;5.40;100.00;100538.66;4936284;29;20059;-71
2021/12/11 06:20:19;;;;;;;39.58;20.00;;;;;;;5.53;100.00;100545.56;4936991;29;20031;-71
2021/12/11 06:23:06;;;;;;;40.85;20.60;;;;;;;5.65;100.00;100542.09;4936227;29;20042;-72
2021/12/11 06:25:53;;;;;;;42.75;22.70;;;;;;;5.60;100.00;100541.22;4936518;29;20032;-72
2021/12/11 06:28:39;;;;;;;59.58;27.27;;;;;;;5.63;100.00;100538.66;4936465;29;20424;-72
2021/12/11 06:31:25;;;;;;;69.50;28.05;;;;;;;5.50;100.00;100537.78;4936554;29;20031;-72
2021/12/11 06:34:12;;;;;;;57.80;26.92;;;;;;;5.46;100.00;100530.00;4936447;29;20417;-71
2021/12/11 06:36:58;;;;;;;57.13;27.70;;;;;;;5.74;100.00;100547.31;4936105;29;20027;-71
2021/12/11 06:39:44;;;;;;;63.80;28.05;;;;;;;5.84;100.00;100547.31;4936713;29;20095;-72
2021/12/11 06:42:31;;;;;;;50.13;25.25;;;;;;;6.21;100.00;100543.78;4936194;29;20046;-72
2021/12/11 06:45:19;;;;;;;55.03;27.20;;;;;;;6.37;100.00;100549.78;4938749;29;20042;-72
2021/12/11 06:48:06;;;;;;;50.38;27.23;;;;;;;6.54;100.00;100546.25;4926299;29;20028;-72
2021/12/11 06:50:53;;;;;;;52.40;26.98;;;;;;;6.74;100.00;100557.44;4940141;29;20036;-71
2021/12/11 06:53:42;;;;;;;46.15;25.80;;;;;;;6.61;100.00;100560.09;4940118;29;20043;-73
2021/12/11 06:56:29;;;;;;;45.17;26.80;;;;;;;6.98;100.00;100559.94;4940271;29;20019;-73
2021/12/11 06:59:15;;;;;;;34.15;19.95;;;;;;;6.68;100.00;100559.22;4940002;29;20031;-72
2021/12/11 07:02:00;;;;;;;35.03;20.40;;;;;;;7.27;100.00;100555.41;4940304;29;20052;-72
2021/12/11 07:04:48;;;;;;;33.50;16.48;;;;;;;6.66;100.00;100550.53;4925705;29;20047;-71
2021/12/11 07:07:35;;;;;;;28.90;16.42;;;;;;;6.53;100.00;100552.34;4941109;29;20405;-71
2021/12/11 07:10:23;;;;;;;32.03;15.27;;;;;;;6.36;100.00;100556.75;4939738;29;20039;-72
2021/12/11 07:13:12;;;;;;;26.33;15.13;;;;;;;6.72;100.00;100550.53;4940047;29;20554;-72
2021/12/11 07:15:59;;;;;;;30.33;17.45;;;;;;;6.84;100.00;100555.69;4938841;29;20027;-72
2021/12/11 07:18:45;;;;;;;44.92;26.33;;;;;;;7.01;100.00;100552.13;4926814;29;20389;-72
2021/12/11 07:21:31;;;;;;;56.25;30.00;;;;;;;7.09;100.00;100552.94;4939854;29;20475;-73
2021/12/11 07:24:20;;;;;;;46.90;26.40;;;;;;;6.96;100.00;100551.28;4940089;29;20039;-72
2021/12/11 07:27:08;;;;;;;35.22;21.13;;;;;;;6.38;100.00;100561.94;4939532;29;20039;-72
2021/12/11 07:29:54;;;;;;;30.50;18.58;;;;;;;6.52;100.00;100565.34;4939144;29;20119;-73
2021/12/11 07:32:40;;;;;;;26.75;14.70;;;;;;;6.68;100.00;100569.63;4939530;29;20030;-72
2021/12/11 07:35:26;;;;;;;28.23;15.45;;;;;;;6.64;100.00;100576.59;4938688;29;20031;-73
2021/12/11 07:38:13;;;;;;;27.95;16.45;;;;;;;6.42;100.00;100587.06;4939812;29;20031;-72
2021/12/11 07:41:03;;;;;;;30.85;15.80;;;;;;;6.71;100.00;100585.25;4939457;29;20031;-72
2021/12/11 07:43:50;;;;;;;31.10;14.43;;;;;;;6.73;100.00;100586.09;4939283;29;20046;-72
2021/12/11 07:46:36;;;;;;;31.02;14.55;;;;;;;6.68;100.00;100593.94;4938427;29;20044;-72
2021/12/11 07:49:22;;;;;;;30.00;14.57;;;;;;;7.02;100.00;100592.03;4926287;29;20087;-72
2021/12/11 07:52:08;;;;;;;30.05;15.23;;;;;;;7.19;100.00;100598.03;4937808;29;20345;-72
2021/12/11 07:54:54;;;;;;;33.67;14.23;;;;;;;7.58;100.00;100605.56;4939986;29;20038;-72
2021/12/11 07:57:40;;;;;;;29.73;15.48;;;;;;;7.80;100.00;100607.16;4937887;29;20039;-72
2021/12/11 08:00:28;;;;;;;25.42;14.30;;;;;;;7.48;100.00;100607.38;4938432;29;20027;-71
2021/12/11 08:03:16;;;;;;;29.65;13.15;;;;;;;6.85;100.00;100612.06;4938913;29;20087;-71
2021/12/11 08:06:03;;;;;;;30.10;13.48;;;;;;;6.56;100.00;100617.41;4937938;29;20038;-72
2021/12/11 08:08:49;;;;;;;31.42;14.70;;;;;;;6.85;100.00;100620.75;4938864;29;20031;-72
2021/12/11 08:11:35;;;;;;;29.10;14.18;;;;;;;7.39;100.00;100611.81;4938155;29;20032;-72
2021/12/11 08:14:23;;;;;;;25.00;12.70;;;;;;;7.03;100.00;100609.41;4924417;29;20050;-71
2021/12/11 08:17:10;;;;;;;22.20;13.90;;;;;;;6.91;100.00;100625.94;4938003;29;20044;-72
2021/12/11 08:19:56;;;;;;;26.10;16.20;;;;;;;6.92;100.00;100619.00;4924732;29;20450;-72
2021/12/11 08:22:42;;;;;;;26.95;17.08;;;;;;;6.80;100.00;100616.44;4938216;29;20034;-73
2021/12/11 08:25:32;;;;;;;29.38;18.58;;;;;;;6.63;100.00;100615.66;4937974;29;20483;-72
2021/12/11 08:28:23;;;;;;;29.38;18.10;;;;;;;7.26;100.00;100610.13;4923732;29;20028;-71
2021/12/11 08:31:10;;;;;;;34.35;20.75;;;;;;;6.73;100.00;100617.34;4925136;29;20114;-72
2021/12/11 08:33:56;;;;;;;42.80;23.50;;;;;;;6.99;100.00;100610.28;4939145;29;20035;-72
2021/12/11 08:36:43;;;;;;;40.80;23.48;;;;;;;7.32;100.00;100605.75;4937743;29;20100;-72
2021/12/11 08:39:29;;;;;;;37.75;20.50;;;;;;;7.82;100.00;100602.78;4924822;29;20031;-71
2021/12/11 08:42:19;;;;;;;37.70;19.45;;;;;;;8.17;100.00;100599.00;4938058;29;20024;-72
2021/12/11 08:45:10;;;;;;;37.22;18.75;;;;;;;7.65;100.00;100599.44;4925705;29;20111;-72
2021/12/11 08:48:00;;;;;;;39.80;19.02;;;;;;;8.34;100.00;100588.41;4938098;29;20043;-72
2021/12/11 08:50:53;;;;;;;42.03;22.27;;;;;;;7.88;100.00;100581.88;4938587;29;20035;-73
2021/12/11 08:53:39;;;;;;;33.72;19.58;;;;;;;8.07;100.00;100579.06;4937922;29;20035;-73
2021/12/11 08:56:25;;;;;;;38.55;19.83;;;;;;;7.97;100.00;100566.13;4937922;29;20079;-72
2021/12/11 08:59:15;;;;;;;41.20;22.17;;;;;;;8.32;100.00;100554.47;4938055;29;20148;-73
2021/12/11 09:02:11;;;;;;;45.55;21.77;;;;;;;8.28;100.00;100559.75;4937809;29;20040;-72
2021/12/11 09:05:07;;;;;;;44.42;21.30;;;;;;;8.36;100.00;100561.38;4922834;29;20098;-72
2021/12/11 09:07:59;;;;;;;39.95;20.98;;;;;;;8.33;100.00;100560.56;4937944;29;20418;-71
2021/12/11 09:11:00;;;;;;;37.65;20.00;;;;;;;8.52;100.00;100554.28;4939208;29;20478;-71
2021/12/11 09:13:59;;;;;;;38.50;18.42;;;;;;;8.11;100.00;100552.06;4937549;29;20028;-71
2021/12/11 09:17:07;;;;;;;34.42;18.00;;;;;;;8.70;100.00;100552.31;4937116;29;20465;-72
2021/12/11 09:20:07;;;;;;;35.35;16.88;;;;;;;8.85;100.00;100541.63;4937638;29;20043;-72
2021/12/11 09:23:03;;;;;;;35.08;17.38;;;;;;;8.74;100.00;100532.22;4923588;29;20093;-72
2021/12/11 09:26:00;;;;;;;32.67;17.02;;;;;;;8.80;100.00;100519.09;4937378;29;20050;-71
2021/12/11 09:29:06;;;;;;;34.08;17.35;;;;;;;9.03;100.00;100515.25;4937793;29;20024;-72
2021/12/11 09:32:18;;;;;;;32.60;17.25;;;;;;;9.24;100.00;100503.59;4938755;28;20421;-71
2021/12/11 09:35:06;;;;;;;32.85;17.33;;;;;;;9.19;100.00;100505.44;4937424;29;20446;-72
2021/12/11 09:37:58;;;;;;;26.33;16.15;;;;;;;9.18;100.00;100509.81;4937473;29;20357;-73
2021/12/11 09:40:44;;;;;;;25.63;15.25;;;;;;;9.88;100.00;100506.88;4936803;29;20330;-72
2021/12/11 09:43:36;;;;;;;24.88;14.60;;;;;;;9.37;100.00;100490.31;4937252;29;20079;-73
2021/12/11 09:46:29;;;;;;;30.30;15.20;;;;;;;9.54;100.00;100495.28;4936164;29;20472;-72
2021/12/11 09:49:19;;;;;;;31.90;17.08;;;;;;;10.03;100.00;100488.28;4922763;29;20035;-72
2021/12/11 09:52:19;;;;;;;42.10;23.23;;;;;;;9.86;100.00;100488.59;4936798;29;20027;-72
2021/12/11 09:55:21;;;;;;;46.13;27.13;;;;;;;9.41;100.00;100485.94;4937366;29;20493;-72
2021/12/11 09:58:29;;;;;;;30.17;18.48;;;;;;;9.73;100.00;100483.63;4937012;29;20349;-72
2021/12/11 10:01:24;;;;;;;33.30;19.48;;;;;;;9.89;100.00;100487.69;4923294;29;20040;-74
2021/12/11 10:04:16;;;;;;;30.42;18.17;;;;;;;9.98;100.00;100484.91;4936433;29;20480;-72
2021/12/11 10:07:26;;;;;;;23.38;15.93;;;;;;;10.04;100.00;100485.63;4936780;29;20023;-72
2021/12/11 10:10:20;;;;;;;17.27;11.57;;;;;;;10.35;100.00;100462.38;4937389;29;20130;-72
2021/12/11 10:13:05;;;;;;;67.50;46.67;;;;;;;10.64;100.00;100465.22;4936424;29;20019;-71
2021/12/11 10:15:51;;;;;;;28.08;18.30;;;;;;;10.49;100.00;100455.06;4936914;29;20044;-71
2021/12/11 10:18:38;;;;;;;24.63;15.98;;;;;;;10.65;100.00;100468.72;4936996;29;20044;-71
2021/12/11 10:21:35;;;;;;;16.60;11.68;;;;;;;10.78;100.00;100464.94;4939670;29;20106;-72
2021/12/11 10:24:25;;;;;;;20.40;13.98;;;;;;;10.71;100.00;100455.47;4940593;29;20031;-71
2021/12/11 10:27:14;;;;;;;15.88;10.00;;;;;;;10.67;100.00;100453.81;4941663;29;20433;-72
2021/12/11 10:30:06;;;;;;;14.52;9.68;;;;;;;10.75;100.00;100452.75;4939967;29;20173;-72
2021/12/11 10:32:54;;;;;;;17.85;12.50;;;;;;;10.66;100.00;100452.09;4940440;29;20122;-71
2021/12/11 10:35:42;;;;;;;14.73;10.80;;;;;;;10.59;100.00;100447.88;4940368;29;20490;-71
2021/12/11 10:38:29;;;;;;;16.42;10.75;;;;;;;10.97;100.00;100442.66;4940064;29;20032;-72
2021/12/11 10:41:16;;;;;;;19.95;11.50;;;;;;;10.88;100.00;100435.00;4940873;29;20375;-72
2021/12/11 10:44:11;;;;;;;18.40;11.60;;;;;;;11.36;100.00;100434.69;4940243;29;20058;-72
2021/12/11 10:46:59;;;;;;;17.70;12.25;;;;;;;11.68;100.00;100439.13;4939504;29;20036;-72
2021/12/11 10:49:48;;;;;;;14.73;11.02;;;;;;;11.69;100.00;100423.34;4940752;29;20039;-72
2021/12/11 10:52:33;;;;;;;17.65;10.18;;;;;;;11.40;100.00;100432.81;4939545;29;20031;-72
2021/12/11 10:55:24;;;;;;;15.98;8.85;;;;;;;11.31;100.00;100425.19;4940935;29;20027;-71
2021/12/11 10:58:15;;;;;;;13.55;8.55;;;;;;;11.28;100.00;100417.41;4925694;29;20031;-72
2021/12/11 11:01:27;;;;;;;8.02;5.90;;;;;;;11.24;100.00;100421.00;4939491;29;20118;-72
2021/12/11 11:04:21;;;;;;;12.40;6.90;;;;;;;11.55;100.00;100419.31;4940040;29;20043;-72
2021/12/11 11:07:07;;;;;;;9.77;6.78;;;;;;;11.85;100.00;100413.31;4939427;29;20040;-72
2021/12/11 11:09:59;;;;;;;12.35;7.70;;;;;;;11.76;100.00;100411.78;4939373;29;20028;-71
2021/12/11 11:12:46;;;;;;;12.25;6.45;;;;;;;11.83;100.00;100400.22;4925777;29;20373;-72
2021/12/11 11:15:32;;;;;;;11.70;6.40;;;;;;;11.82;100.00;100405.50;4940019;29;20127;-72
2021/12/11 11:18:22;;;;;;;10.23;5.97;;;;;;;12.02;100.00;100411.06;4939018;29;20052;-72
2021/12/11 11:21:12;;;;;;;12.82;6.68;;;;;;;12.01;100.00;100407.56;4939763;29;20031;-72
2021/12/11 11:23:59;;;;;;;10.63;6.82;;;;;;;11.86;100.00;100399.28;4939003;29;20039;-73
2021/12/11 11:26:46;;;;;;;14.13;8.30;;;;;;;12.27;100.00;100397.19;4939565;29;20038;-71
2021/12/11 11:29:34;;;;;;;12.93;8.07;;;;;;;12.06;100.00;100389.06;4938982;29;20114;-73
2021/12/11 11:32:32;;;;;;;12.90;8.88;;;;;;;12.24;100.00;100389.41;4938176;29;20414;-72
2021/12/11 11:35:22;;;;;;;16.77;9.00;;;;;;;12.44;100.00;100389.66;4938840;29;20456;-72
2021/12/11 11:38:14;;;;;;;14.82;8.32;;;;;;;12.37;100.00;100388.13;4940357;29;20428;-72
2021/12/11 11:41:14;;;;;;;16.23;8.52;;;;;;;12.21;100.00;100384.22;4938700;29;20171;-72
2021/12/11 11:44:02;;;;;;;15.10;8.25;;;;;;;12.66;100.00;100385.47;4938986;29;20039;-72
2021/12/11 11:46:48;;;;;;;18.13;8.73;;;;;;;12.00;100.00;100379.59;4938518;29;20054;-72
2021/12/11 11:49:34;;;;;;;13.63;8.05;;;;;;;12.22;100.00;100383.31;4939186;29;20031;-72
2021/12/11 11:52:21;;;;;;;13.00;7.82;;;;;;;12.18;100.00;100391.34;4925547;29;20116;-73
2021/12/11 11:55:12;;;;;;;17.98;8.27;;;;;;;12.33;100.00;100383.88;4925227;29;20031;-72
2021/12/11 11:57:59;;;;;;;22.98;10.07;;;;;;;12.02;100.00;100387.44;4938705;29;20032;-72
2021/12/11 12:00:53;;;;;;;14.65;7.63;;;;;;;12.24;100.00;100378.91;4938529;29;20099;-72
2021/12/11 12:03:39;;;;;;;16.60;10.00;;;;;;;12.39;100.00;100375.81;4938311;29;20036;-72
2021/12/11 12:06:31;;;;;;;10.18;5.78;;;;;;;12.36;100.00;100383.78;4938004;29;20441;-71
2021/12/11 12:09:17;;;;;;;12.65;7.72;;;;;;;12.13;100.00;100375.72;4924801;29;20106;-73
2021/12/11 12:12:04;;;;;;;10.55;6.75;;;;;;;11.86;100.00;100380.91;4938140;29;20089;-71
2021/12/11 12:14:52;;;;;;;17.10;7.35;;;;;;;11.73;100.00;100371.66;4938531;29;20047;-72
2021/12/11 12:17:38;;;;;;;13.38;7.43;;;;;;;12.07;100.00;100369.78;4937871;29;20051;-73
2021/12/11 12:20:25;;;;;;;11.98;7.05;;;;;;;12.03;100.00;100373.41;4938465;29;20028;-71
2021/12/11 12:23:12;;;;;;;15.15;8.40;;;;;;;11.92;100.00;100368.47;4937850;29;20023;-71
2021/12/11 12:26:03;;;;;;;129.05;49.13;;;;;;;11.91;100.00;100369.38;4938232;29;20027;-72
2021/12/11 12:28:50;;;;;;;109.30;47.47;;;;;;;12.46;100.00;100368.59;4939170;29;20028;-72
2021/12/11 12:31:41;;;;;;;25.65;13.00;;;;;;;12.34;100.00;100364.56;4939175;29;20087;-71
2021/12/11 12:34:27;;;;;;;26.58;16.38;;;;;;;12.22;100.00;100364.09;4937883;29;20038;-71
2021/12/11 12:37:13;;;;;;;38.13;21.25;;;;;;;12.09;100.00;100371.44;4924247;29;20110;-71
2021/12/11 12:40:03;;;;;;;19.98;12.07;;;;;;;11.90;100.00;100365.00;4924183;29;20024;-71
2021/12/11 12:42:54;;;;;;;81.97;49.35;;;;;;;12.29;100.00;100357.72;4938750;29;20032;-72
2021/12/11 12:45:47;;;;;;;62.92;41.83;;;;;;;11.83;100.00;100360.84;4938255;29;20074;-75
2021/12/11 12:48:33;;;;;;;51.00;25.50;;;;;;;11.95;100.00;100363.13;4938649;29;20027;-72
2021/12/11 12:51:20;;;;;;;28.27;15.32;;;;;;;12.17;100.00;100358.97;4936255;29;20023;-72
2021/12/11 12:54:12;;;;;;;35.28;19.33;;;;;;;12.14;100.00;100356.41;4937746;29;20055;-71
2021/12/11 12:57:11;;;;;;;28.75;16.98;;;;;;;11.89;100.00;100359.81;4938014;29;20023;-72
2021/12/11 13:00:25;;;;;;;41.53;25.42;;;;;;;12.04;100.00;100357.59;4938382;29;20460;-72
2021/12/11 13:03:17;;;;;;;29.67;15.00;;;;;;;11.97;100.00;100356.06;4937488;29;20090;-71
2021/12/11 13:06:10;;;;;;;19.17;10.75;;;;;;;11.90;100.00;100354.50;4936985;29;20449;-72
2021/12/11 13:09:19;;;;;;;24.33;10.55;;;;;;;12.12;100.00;100360.88;4937201;29;20063;-73
2021/12/11 13:12:10;;;;;;;21.42;10.48;;;;;;;12.42;100.00;100369.59;4937065;29;20024;-71
2021/12/11 13:14:59;;;;;;;15.82;8.77;;;;;;;11.93;100.00;100370.16;4937541;29;20102;-71
2021/12/11 13:17:49;;;;;;;15.20;8.45;;;;;;;11.92;100.00;100368.47;4923263;29;20051;-72
2021/12/11 13:20:44;;;;;;;17.75;10.18;;;;;;;12.28;100.00;100377.03;4937438;29;20114;-72
2021/12/11 13:23:32;;;;;;;15.70;8.05;;;;;;;11.92;100.00;100373.72;4937427;29;20122;-72